sensor_id;sensor_type;location;lat;lon;timestamp;temperature;humidity
13389;DHT22;6764;53.250;10.410;2023-01-24T00:01:19;4.90;99.90
13389;DHT22;6764;53.250;10.410;2023-01-24T00:03:45;4.90;99.90
13389;DHT22;6764;53.250;10.410;2023-01-24T00:06:11;4.90;99.90
13389;DHT22;6764;53.250;10.410;2023-01-24T00:08:37;4.90;99.90
13389;DHT22;6764;53.250;10.410;2023-01-24T00:11:05;4.90;99.90
13389;DHT22;6764;53.250;10.410;2023-01-24T00:13:31;4.80;99.90
13389;DHT22;6764;53.250;10.410;2023-01-24T00:16:13;4.90;99.90
13389;DHT22;6764;53.250;10.410;2023-01-24T00:18:39;4.90;99.90
13389;DHT22;6764;53.250;10.410;2023-01-24T00:21:08;4.70;99.90
13389;DHT22;6764;53.250;10.410;2023-01-24T00:23:35;4.80;99.90
13389;DHT22;6764;53.250;10.410;2023-01-24T00:26:02;4.80;99.90
13389;DHT22;6764;53.250;10.410;2023-01-24T00:28:30;4.80;99.90
13389;DHT22;6764;53.250;10.410;2023-01-24T00:30:55;4.80;99.90
13389;DHT22;6764;53.250;10.410;2023-01-24T00:33:21;4.70;99.90
13389;DHT22;6764;53.250;10.410;2023-01-24T00:35:48;4.70;99.90
13389;DHT22;6764;53.250;10.410;2023-01-24T00:38:14;4.70;99.90
13389;DHT22;6764;53.250;10.410;2023-01-24T00:40:39;4.80;99.90
13389;DHT22;6764;53.250;10.410;2023-01-24T00:43:05;4.70;99.90
13389;DHT22;6764;53.250;10.410;2023-01-24T00:45:31;4.70;99.90
13389;DHT22;6764;53.250;10.410;2023-01-24T00:47:56;4.70;99.90
13389;DHT22;6764;53.250;10.410;2023-01-24T00:50:22;4.80;99.90
13389;DHT22;6764;53.250;10.410;2023-01-24T00:52:47;4.80;99.90
13389;DHT22;6764;53.250;10.410;2023-01-24T00:55:13;4.70;99.90
13389;DHT22;6764;53.250;10.410;2023-01-24T00:57:39;4.70;99.90
13389;DHT22;6764;53.250;10.410;2023-01-24T01:00:04;4.70;99.90
13389;DHT22;6764;53.250;10.410;2023-01-24T01:02:30;4.70;99.90
13389;DHT22;6764;53.250;10.410;2023-01-24T01:04:56;4.80;99.90
13389;DHT22;6764;53.250;10.410;2023-01-24T01:07:21;4.70;99.90
13389;DHT22;6764;53.250;10.410;2023-01-24T01:09:48;4.70;99.90
13389;DHT22;6764;53.250;10.410;2023-01-24T01:12:13;4.80;99.90
13389;DHT22;6764;53.250;10.410;2023-01-24T01:14:39;4.70;99.90
13389;DHT22;6764;53.250;10.410;2023-01-24T01:17:05;4.70;99.90
13389;DHT22;6764;53.250;10.410;2023-01-24T01:19:30;4.80;99.90
13389;DHT22;6764;53.250;10.410;2023-01-24T01:21:56;4.70;99.90
13389;DHT22;6764;53.250;10.410;2023-01-24T01:24:21;4.70;99.90
13389;DHT22;6764;53.250;10.410;2023-01-24T01:26:47;4.60;99.90
13389;DHT22;6764;53.250;10.410;2023-01-24T01:29:12;4.60;99.90
13389;DHT22;6764;53.250;10.410;2023-01-24T01:31:38;4.60;99.90
13389;DHT22;6764;53.250;10.410;2023-01-24T01:34:04;4.60;99.90
13389;DHT22;6764;53.250;10.410;2023-01-24T01:36:29;4.60;99.90
13389;DHT22;6764;53.250;10.410;2023-01-24T01:38:55;4.60;99.90
13389;DHT22;6764;53.250;10.410;2023-01-24T01:41:21;4.60;99.90
13389;DHT22;6764;53.250;10.410;2023-01-24T01:43:46;4.60;99.90
13389;DHT22;6764;53.250;10.410;2023-01-24T01:46:48;4.60;99.90
13389;DHT22;6764;53.250;10.410;2023-01-24T01:49:23;4.60;99.90
13389;DHT22;6764;53.250;10.410;2023-01-24T01:51:54;4.70;99.90
13389;DHT22;6764;53.250;10.410;2023-01-24T01:54:25;4.60;99.90
13389;DHT22;6764;53.250;10.410;2023-01-24T01:57:20;4.60;99.90
13389;DHT22;6764;53.250;10.410;2023-01-24T01:59:54;4.70;99.90
13389;DHT22;6764;53.250;10.410;2023-01-24T02:02:22;4.70;99.90
13389;DHT22;6764;53.250;10.410;2023-01-24T02:04:53;4.60;99.90
13389;DHT22;6764;53.250;10.410;2023-01-24T02:07:36;4.50;99.90
13389;DHT22;6764;53.250;10.410;2023-01-24T02:10:04;4.60;99.90
13389;DHT22;6764;53.250;10.410;2023-01-24T02:12:34;4.60;99.90
13389;DHT22;6764;53.250;10.410;2023-01-24T02:15:08;4.60;99.90
13389;DHT22;6764;53.250;10.410;2023-01-24T02:17:52;4.60;99.90
13389;DHT22;6764;53.250;10.410;2023-01-24T02:20:39;4.60;99.90
13389;DHT22;6764;53.250;10.410;2023-01-24T02:26:03;4.60;99.90
13389;DHT22;6764;53.250;10.410;2023-01-24T02:28:29;4.60;99.90
13389;DHT22;6764;53.250;10.410;2023-01-24T02:30:58;4.60;99.90
13389;DHT22;6764;53.250;10.410;2023-01-24T02:33:25;4.60;99.90
13389;DHT22;6764;53.250;10.410;2023-01-24T02:35:50;4.60;99.90
13389;DHT22;6764;53.250;10.410;2023-01-24T02:40:44;4.60;99.90
13389;DHT22;6764;53.250;10.410;2023-01-24T02:43:12;4.50;99.90
13389;DHT22;6764;53.250;10.410;2023-01-24T02:45:39;4.60;99.90
13389;DHT22;6764;53.250;10.410;2023-01-24T02:48:04;4.60;99.90
13389;DHT22;6764;53.250;10.410;2023-01-24T02:50:31;4.60;99.90
13389;DHT22;6764;53.250;10.410;2023-01-24T02:53:15;4.60;99.90
13389;DHT22;6764;53.250;10.410;2023-01-24T02:56:04;4.60;99.90
13389;DHT22;6764;53.250;10.410;2023-01-24T02:58:49;4.60;99.90
13389;DHT22;6764;53.250;10.410;2023-01-24T03:01:15;4.50;99.90
13389;DHT22;6764;53.250;10.410;2023-01-24T03:03:51;4.40;99.90
13389;DHT22;6764;53.250;10.410;2023-01-24T03:06:18;4.40;99.90
13389;DHT22;6764;53.250;10.410;2023-01-24T03:08:44;4.50;99.90
13389;DHT22;6764;53.250;10.410;2023-01-24T03:11:10;4.50;99.90
13389;DHT22;6764;53.250;10.410;2023-01-24T03:13:37;4.50;99.90
13389;DHT22;6764;53.250;10.410;2023-01-24T03:16:22;4.50;99.90
13389;DHT22;6764;53.250;10.410;2023-01-24T03:19:06;4.50;99.90
13389;DHT22;6764;53.250;10.410;2023-01-24T03:21:50;4.60;99.90
13389;DHT22;6764;53.250;10.410;2023-01-24T03:24:29;4.60;99.90
13389;DHT22;6764;53.250;10.410;2023-01-24T03:27:14;4.60;99.90
13389;DHT22;6764;53.250;10.410;2023-01-24T03:29:58;4.60;99.90
13389;DHT22;6764;53.250;10.410;2023-01-24T03:32:43;4.50;99.90
13389;DHT22;6764;53.250;10.410;2023-01-24T03:35:27;4.50;99.90
13389;DHT22;6764;53.250;10.410;2023-01-24T03:37:53;4.60;99.90
13389;DHT22;6764;53.250;10.410;2023-01-24T03:40:39;4.60;99.90
13389;DHT22;6764;53.250;10.410;2023-01-24T03:43:05;4.60;99.90
13389;DHT22;6764;53.250;10.410;2023-01-24T03:45:33;4.60;99.90
13389;DHT22;6764;53.250;10.410;2023-01-24T03:48:01;4.60;99.90
13389;DHT22;6764;53.250;10.410;2023-01-24T03:50:34;4.60;99.90
13389;DHT22;6764;53.250;10.410;2023-01-24T03:53:20;4.60;99.90
13389;DHT22;6764;53.250;10.410;2023-01-24T03:55:50;4.50;99.90
13389;DHT22;6764;53.250;10.410;2023-01-24T03:58:16;4.50;99.90
13389;DHT22;6764;53.250;10.410;2023-01-24T04:00:41;4.40;99.90
13389;DHT22;6764;53.250;10.410;2023-01-24T04:03:07;4.40;99.90
13389;DHT22;6764;53.250;10.410;2023-01-24T04:05:33;4.40;99.90
13389;DHT22;6764;53.250;10.410;2023-01-24T04:07:59;4.40;99.90
13389;DHT22;6764;53.250;10.410;2023-01-24T04:10:25;4.40;99.90
13389;DHT22;6764;53.250;10.410;2023-01-24T04:12:50;4.50;99.90
13389;DHT22;6764;53.250;10.410;2023-01-24T04:15:19;4.50;99.90
13389;DHT22;6764;53.250;10.410;2023-01-24T04:17:45;4.50;99.90
13389;DHT22;6764;53.250;10.410;2023-01-24T04:20:11;4.50;99.90
13389;DHT22;6764;53.250;10.410;2023-01-24T04:22:37;4.50;99.90
13389;DHT22;6764;53.250;10.410;2023-01-24T04:25:03;4.50;99.90
13389;DHT22;6764;53.250;10.410;2023-01-24T04:27:28;4.50;99.90
13389;DHT22;6764;53.250;10.410;2023-01-24T04:29:54;4.60;99.90
13389;DHT22;6764;53.250;10.410;2023-01-24T04:32:19;4.50;99.90
13389;DHT22;6764;53.250;10.410;2023-01-24T04:34:45;4.60;99.90
13389;DHT22;6764;53.250;10.410;2023-01-24T04:37:11;4.60;99.90
13389;DHT22;6764;53.250;10.410;2023-01-24T04:39:36;4.60;99.90
13389;DHT22;6764;53.250;10.410;2023-01-24T04:42:02;4.60;99.90
13389;DHT22;6764;53.250;10.410;2023-01-24T04:44:28;4.60;99.90
13389;DHT22;6764;53.250;10.410;2023-01-24T04:46:53;4.50;99.90
13389;DHT22;6764;53.250;10.410;2023-01-24T04:49:19;4.60;99.90
13389;DHT22;6764;53.250;10.410;2023-01-24T04:51:48;4.50;99.90
13389;DHT22;6764;53.250;10.410;2023-01-24T04:54:14;4.50;99.90
13389;DHT22;6764;53.250;10.410;2023-01-24T04:56:39;4.60;99.90
13389;DHT22;6764;53.250;10.410;2023-01-24T04:59:05;4.60;99.90
13389;DHT22;6764;53.250;10.410;2023-01-24T05:01:30;4.60;99.90
13389;DHT22;6764;53.250;10.410;2023-01-24T05:03:56;4.70;99.90
13389;DHT22;6764;53.250;10.410;2023-01-24T05:06:28;4.70;99.90
13389;DHT22;6764;53.250;10.410;2023-01-24T05:08:54;4.70;99.90
13389;DHT22;6764;53.250;10.410;2023-01-24T05:11:20;4.70;99.90
13389;DHT22;6764;53.250;10.410;2023-01-24T05:13:46;4.70;99.90
13389;DHT22;6764;53.250;10.410;2023-01-24T05:16:12;4.70;99.90
13389;DHT22;6764;53.250;10.410;2023-01-24T05:18:38;4.70;99.90
13389;DHT22;6764;53.250;10.410;2023-01-24T05:21:08;4.70;99.90
13389;DHT22;6764;53.250;10.410;2023-01-24T05:23:34;4.80;99.90
13389;DHT22;6764;53.250;10.410;2023-01-24T05:26:03;4.70;99.90
13389;DHT22;6764;53.250;10.410;2023-01-24T05:28:29;4.70;99.90
13389;DHT22;6764;53.250;10.410;2023-01-24T05:31:03;4.70;99.90
13389;DHT22;6764;53.250;10.410;2023-01-24T05:33:29;4.60;99.90
13389;DHT22;6764;53.250;10.410;2023-01-24T05:35:59;4.50;99.90
13389;DHT22;6764;53.250;10.410;2023-01-24T05:38:25;4.50;99.90
13389;DHT22;6764;53.250;10.410;2023-01-24T05:40:51;4.50;99.90
13389;DHT22;6764;53.250;10.410;2023-01-24T05:43:17;4.50;99.90
13389;DHT22;6764;53.250;10.410;2023-01-24T05:45:42;4.40;99.90
13389;DHT22;6764;53.250;10.410;2023-01-24T05:48:08;4.40;99.90
13389;DHT22;6764;53.250;10.410;2023-01-24T05:50:35;4.40;99.90
13389;DHT22;6764;53.250;10.410;2023-01-24T05:53:02;4.40;99.90
13389;DHT22;6764;53.250;10.410;2023-01-24T05:55:28;4.40;99.90
13389;DHT22;6764;53.250;10.410;2023-01-24T05:57:53;4.40;99.90
13389;DHT22;6764;53.250;10.410;2023-01-24T06:00:19;4.40;99.90
13389;DHT22;6764;53.250;10.410;2023-01-24T06:02:45;4.50;99.90
13389;DHT22;6764;53.250;10.410;2023-01-24T06:05:10;4.50;99.90
13389;DHT22;6764;53.250;10.410;2023-01-24T06:07:36;4.40;99.90
13389;DHT22;6764;53.250;10.410;2023-01-24T06:10:02;4.40;99.90
13389;DHT22;6764;53.250;10.410;2023-01-24T06:12:28;4.40;99.90
13389;DHT22;6764;53.250;10.410;2023-01-24T06:14:53;4.40;99.90
13389;DHT22;6764;53.250;10.410;2023-01-24T06:17:19;4.40;99.90
13389;DHT22;6764;53.250;10.410;2023-01-24T06:19:45;4.40;99.90
13389;DHT22;6764;53.250;10.410;2023-01-24T06:22:37;4.40;99.90
13389;DHT22;6764;53.250;10.410;2023-01-24T06:25:16;4.30;99.90
13389;DHT22;6764;53.250;10.410;2023-01-24T06:27:44;4.30;99.90
13389;DHT22;6764;53.250;10.410;2023-01-24T06:30:12;4.30;99.90
13389;DHT22;6764;53.250;10.410;2023-01-24T06:35:28;4.40;99.90
13389;DHT22;6764;53.250;10.410;2023-01-24T06:37:58;4.40;99.90
13389;DHT22;6764;53.250;10.410;2023-01-24T06:40:24;4.40;99.90
13389;DHT22;6764;53.250;10.410;2023-01-24T06:42:51;4.50;99.90
13389;DHT22;6764;53.250;10.410;2023-01-24T06:45:18;4.50;99.90
13389;DHT22;6764;53.250;10.410;2023-01-24T06:47:44;4.50;99.90
13389;DHT22;6764;53.250;10.410;2023-01-24T06:50:18;4.40;99.90
13389;DHT22;6764;53.250;10.410;2023-01-24T06:52:45;4.30;99.90
13389;DHT22;6764;53.250;10.410;2023-01-24T06:55:11;4.30;99.90
13389;DHT22;6764;53.250;10.410;2023-01-24T06:57:37;4.30;99.90
13389;DHT22;6764;53.250;10.410;2023-01-24T07:00:04;4.30;99.90
13389;DHT22;6764;53.250;10.410;2023-01-24T07:02:30;4.20;99.90
13389;DHT22;6764;53.250;10.410;2023-01-24T07:04:55;4.10;99.90
13389;DHT22;6764;53.250;10.410;2023-01-24T07:07:21;4.10;99.90
13389;DHT22;6764;53.250;10.410;2023-01-24T07:09:46;4.20;99.90
13389;DHT22;6764;53.250;10.410;2023-01-24T07:12:12;4.20;99.90
13389;DHT22;6764;53.250;10.410;2023-01-24T07:14:38;4.20;99.90
13389;DHT22;6764;53.250;10.410;2023-01-24T07:17:03;4.30;99.90
13389;DHT22;6764;53.250;10.410;2023-01-24T07:19:29;4.30;99.90
13389;DHT22;6764;53.250;10.410;2023-01-24T07:21:55;4.30;99.90
13389;DHT22;6764;53.250;10.410;2023-01-24T07:24:27;4.40;99.90
13389;DHT22;6764;53.250;10.410;2023-01-24T07:26:53;4.40;99.90
13389;DHT22;6764;53.250;10.410;2023-01-24T07:29:19;4.40;99.90
13389;DHT22;6764;53.250;10.410;2023-01-24T07:31:45;4.20;99.90
13389;DHT22;6764;53.250;10.410;2023-01-24T07:34:14;4.20;99.90
13389;DHT22;6764;53.250;10.410;2023-01-24T07:36:41;4.20;99.90
13389;DHT22;6764;53.250;10.410;2023-01-24T07:39:07;4.20;99.90
13389;DHT22;6764;53.250;10.410;2023-01-24T07:41:35;4.30;99.90
13389;DHT22;6764;53.250;10.410;2023-01-24T07:44:00;4.30;99.90
13389;DHT22;6764;53.250;10.410;2023-01-24T07:46:30;4.30;99.90
13389;DHT22;6764;53.250;10.410;2023-01-24T07:48:56;4.30;99.90
13389;DHT22;6764;53.250;10.410;2023-01-24T07:51:21;4.20;99.90
13389;DHT22;6764;53.250;10.410;2023-01-24T07:53:47;4.30;99.90
13389;DHT22;6764;53.250;10.410;2023-01-24T07:56:13;4.30;99.90
13389;DHT22;6764;53.250;10.410;2023-01-24T07:58:40;4.20;99.90
13389;DHT22;6764;53.250;10.410;2023-01-24T08:01:06;4.20;99.90
13389;DHT22;6764;53.250;10.410;2023-01-24T08:03:32;4.30;99.90
13389;DHT22;6764;53.250;10.410;2023-01-24T08:05:57;4.30;99.90
13389;DHT22;6764;53.250;10.410;2023-01-24T08:08:23;4.40;99.90
13389;DHT22;6764;53.250;10.410;2023-01-24T08:10:49;4.30;99.90
13389;DHT22;6764;53.250;10.410;2023-01-24T08:13:14;4.20;99.90
13389;DHT22;6764;53.250;10.410;2023-01-24T08:15:40;4.20;99.90
13389;DHT22;6764;53.250;10.410;2023-01-24T08:18:05;4.10;99.90
13389;DHT22;6764;53.250;10.410;2023-01-24T08:20:31;4.10;99.90
13389;DHT22;6764;53.250;10.410;2023-01-24T08:22:57;4.10;99.90
13389;DHT22;6764;53.250;10.410;2023-01-24T08:25:23;4.20;99.90
13389;DHT22;6764;53.250;10.410;2023-01-24T08:27:49;4.20;99.90
13389;DHT22;6764;53.250;10.410;2023-01-24T08:30:14;4.40;99.90
13389;DHT22;6764;53.250;10.410;2023-01-24T08:32:41;4.40;99.90
13389;DHT22;6764;53.250;10.410;2023-01-24T08:35:07;4.30;99.90
13389;DHT22;6764;53.250;10.410;2023-01-24T08:37:32;4.20;99.90
13389;DHT22;6764;53.250;10.410;2023-01-24T08:39:58;4.20;99.90
13389;DHT22;6764;53.250;10.410;2023-01-24T08:42:24;4.20;99.90
13389;DHT22;6764;53.250;10.410;2023-01-24T08:44:50;4.30;99.90
13389;DHT22;6764;53.250;10.410;2023-01-24T08:47:16;4.30;99.90
13389;DHT22;6764;53.250;10.410;2023-01-24T08:49:42;4.30;99.90
13389;DHT22;6764;53.250;10.410;2023-01-24T08:52:08;4.30;99.90
13389;DHT22;6764;53.250;10.410;2023-01-24T08:54:33;4.20;99.90
13389;DHT22;6764;53.250;10.410;2023-01-24T08:57:04;4.20;99.90
13389;DHT22;6764;53.250;10.410;2023-01-24T08:59:29;4.30;99.90
13389;DHT22;6764;53.250;10.410;2023-01-24T09:01:55;4.30;99.90
13389;DHT22;6764;53.250;10.410;2023-01-24T09:04:21;4.30;99.90
13389;DHT22;6764;53.250;10.410;2023-01-24T09:06:47;4.40;99.90
13389;DHT22;6764;53.250;10.410;2023-01-24T09:09:12;4.50;99.90
13389;DHT22;6764;53.250;10.410;2023-01-24T09:11:38;4.50;99.90
13389;DHT22;6764;53.250;10.410;2023-01-24T09:14:04;4.50;99.90
13389;DHT22;6764;53.250;10.410;2023-01-24T09:16:29;4.40;99.90
13389;DHT22;6764;53.250;10.410;2023-01-24T09:18:55;4.40;99.90
13389;DHT22;6764;53.250;10.410;2023-01-24T09:21:21;4.30;99.90
13389;DHT22;6764;53.250;10.410;2023-01-24T09:23:47;4.40;99.90
13389;DHT22;6764;53.250;10.410;2023-01-24T09:26:13;4.30;99.90
13389;DHT22;6764;53.250;10.410;2023-01-24T09:28:39;4.30;99.90
13389;DHT22;6764;53.250;10.410;2023-01-24T09:31:07;4.30;99.90
13389;DHT22;6764;53.250;10.410;2023-01-24T09:33:33;4.40;99.90
13389;DHT22;6764;53.250;10.410;2023-01-24T09:36:01;4.30;99.90
13389;DHT22;6764;53.250;10.410;2023-01-24T09:38:29;4.30;99.90
13389;DHT22;6764;53.250;10.410;2023-01-24T09:43:58;4.40;99.90
13389;DHT22;6764;53.250;10.410;2023-01-24T09:46:35;4.40;99.90
13389;DHT22;6764;53.250;10.410;2023-01-24T09:49:13;4.40;99.90
13389;DHT22;6764;53.250;10.410;2023-01-24T09:51:50;4.30;99.90
13389;DHT22;6764;53.250;10.410;2023-01-24T09:54:55;4.30;99.90
13389;DHT22;6764;53.250;10.410;2023-01-24T09:57:32;4.30;99.90
13389;DHT22;6764;53.250;10.410;2023-01-24T10:00:13;4.40;99.90
13389;DHT22;6764;53.250;10.410;2023-01-24T10:02:39;4.50;99.90
13389;DHT22;6764;53.250;10.410;2023-01-24T10:05:10;4.40;99.90
13389;DHT22;6764;53.250;10.410;2023-01-24T10:18:39;4.40;99.90
13389;DHT22;6764;53.250;10.410;2023-01-24T10:24:05;4.60;99.90
13389;DHT22;6764;53.250;10.410;2023-01-24T10:26:41;4.50;99.90
13389;DHT22;6764;53.250;10.410;2023-01-24T10:29:23;4.50;99.90
13389;DHT22;6764;53.250;10.410;2023-01-24T10:34:34;4.50;99.90
13389;DHT22;6764;53.250;10.410;2023-01-24T10:39:42;4.50;99.90
13389;DHT22;6764;53.250;10.410;2023-01-24T10:42:28;4.50;99.90
13389;DHT22;6764;53.250;10.410;2023-01-24T10:44:59;4.50;99.90
13389;DHT22;6764;53.250;10.410;2023-01-24T10:47:45;4.60;99.90
13389;DHT22;6764;53.250;10.410;2023-01-24T10:50:14;4.60;99.90
13389;DHT22;6764;53.250;10.410;2023-01-24T10:52:41;4.60;99.90
13389;DHT22;6764;53.250;10.410;2023-01-24T10:55:36;4.60;99.90
13389;DHT22;6764;53.250;10.410;2023-01-24T10:58:20;4.60;99.90
13389;DHT22;6764;53.250;10.410;2023-01-24T11:00:46;4.60;99.90
13389;DHT22;6764;53.250;10.410;2023-01-24T11:03:23;4.60;99.90
13389;DHT22;6764;53.250;10.410;2023-01-24T11:05:53;4.60;99.90
13389;DHT22;6764;53.250;10.410;2023-01-24T11:08:23;4.70;99.90
13389;DHT22;6764;53.250;10.410;2023-01-24T11:10:53;4.70;99.90
13389;DHT22;6764;53.250;10.410;2023-01-24T11:13:35;4.70;99.90
13389;DHT22;6764;53.250;10.410;2023-01-24T11:18:48;4.70;99.90
13389;DHT22;6764;53.250;10.410;2023-01-24T11:21:16;4.60;99.90
13389;DHT22;6764;53.250;10.410;2023-01-24T11:23:43;4.60;99.90
13389;DHT22;6764;53.250;10.410;2023-01-24T11:26:24;4.40;99.90
13389;DHT22;6764;53.250;10.410;2023-01-24T11:29:02;4.20;99.90
13389;DHT22;6764;53.250;10.410;2023-01-24T11:31:41;4.20;99.90
13389;DHT22;6764;53.250;10.410;2023-01-24T11:40:18;4.40;99.90
13389;DHT22;6764;53.250;10.410;2023-01-24T11:43:02;4.50;99.90
13389;DHT22;6764;53.250;10.410;2023-01-24T11:48:22;4.40;99.90
13389;DHT22;6764;53.250;10.410;2023-01-24T11:53:40;4.40;99.90
13389;DHT22;6764;53.250;10.410;2023-01-24T11:56:18;4.50;99.90
13389;DHT22;6764;53.250;10.410;2023-01-24T12:09:14;4.30;99.90
13389;DHT22;6764;53.250;10.410;2023-01-24T12:22:22;4.30;99.90
13389;DHT22;6764;53.250;10.410;2023-01-24T12:24:56;4.20;99.90
13389;DHT22;6764;53.250;10.410;2023-01-24T12:27:25;4.20;99.90
13389;DHT22;6764;53.250;10.410;2023-01-24T12:32:53;4.20;99.90
13389;DHT22;6764;53.250;10.410;2023-01-24T12:35:34;4.30;99.90
13389;DHT22;6764;53.250;10.410;2023-01-24T12:40:35;4.20;99.90
13389;DHT22;6764;53.250;10.410;2023-01-24T12:43:06;4.20;99.90
13389;DHT22;6764;53.250;10.410;2023-01-24T12:45:50;4.10;99.90
13389;DHT22;6764;53.250;10.410;2023-01-24T12:48:27;4.10;99.90
13389;DHT22;6764;53.250;10.410;2023-01-24T12:54:06;4.10;99.90
13389;DHT22;6764;53.250;10.410;2023-01-24T12:59:09;4.10;99.90
13389;DHT22;6764;53.250;10.410;2023-01-24T13:07:41;4.00;99.90
13389;DHT22;6764;53.250;10.410;2023-01-24T13:13:07;4.10;99.90
13389;DHT22;6764;53.250;10.410;2023-01-24T13:20:47;4.00;99.90
13389;DHT22;6764;53.250;10.410;2023-01-24T13:31:31;4.00;99.90
13389;DHT22;6764;53.250;10.410;2023-01-24T13:34:03;3.90;99.90
13389;DHT22;6764;53.250;10.410;2023-01-24T13:36:33;4.00;99.90
13389;DHT22;6764;53.250;10.410;2023-01-24T13:38:59;4.00;99.90
13389;DHT22;6764;53.250;10.410;2023-01-24T13:44:25;4.00;99.90
13389;DHT22;6764;53.250;10.410;2023-01-24T13:46:56;3.90;99.90
13389;DHT22;6764;53.250;10.410;2023-01-24T13:51:55;3.90;99.90
13389;DHT22;6764;53.250;10.410;2023-01-24T13:57:24;3.90;99.90
13389;DHT22;6764;53.250;10.410;2023-01-24T14:00:17;3.90;99.90
13389;DHT22;6764;53.250;10.410;2023-01-24T14:06:12;3.80;99.90
13389;DHT22;6764;53.250;10.410;2023-01-24T14:10:50;3.90;99.90
13389;DHT22;6764;53.250;10.410;2023-01-24T14:21:56;3.70;99.90
13389;DHT22;6764;53.250;10.410;2023-01-24T14:24:37;3.70;99.90
13389;DHT22;6764;53.250;10.410;2023-01-24T14:27:35;3.70;99.90
13389;DHT22;6764;53.250;10.410;2023-01-24T14:30:32;3.70;99.90
13389;DHT22;6764;53.250;10.410;2023-01-24T14:33:29;3.70;99.90
13389;DHT22;6764;53.250;10.410;2023-01-24T14:38:31;3.70;99.90
13389;DHT22;6764;53.250;10.410;2023-01-24T14:40:57;3.70;99.90
13389;DHT22;6764;53.250;10.410;2023-01-24T14:43:36;3.80;99.90
13389;DHT22;6764;53.250;10.410;2023-01-24T14:46:22;3.70;99.90
13389;DHT22;6764;53.250;10.410;2023-01-24T14:48:49;3.80;99.90
13389;DHT22;6764;53.250;10.410;2023-01-24T14:51:22;3.70;99.90
13389;DHT22;6764;53.250;10.410;2023-01-24T14:53:53;3.70;99.90
13389;DHT22;6764;53.250;10.410;2023-01-24T14:56:19;3.70;99.90
13389;DHT22;6764;53.250;10.410;2023-01-24T14:58:46;3.80;99.90
13389;DHT22;6764;53.250;10.410;2023-01-24T15:01:28;3.80;99.90
13389;DHT22;6764;53.250;10.410;2023-01-24T15:03:56;3.80;99.90
13389;DHT22;6764;53.250;10.410;2023-01-24T15:06:23;3.70;99.90
13389;DHT22;6764;53.250;10.410;2023-01-24T15:08:53;3.60;99.90
13389;DHT22;6764;53.250;10.410;2023-01-24T15:11:30;3.60;99.90
13389;DHT22;6764;53.250;10.410;2023-01-24T15:14:12;3.50;99.90
13389;DHT22;6764;53.250;10.410;2023-01-24T15:16:53;3.60;99.90
13389;DHT22;6764;53.250;10.410;2023-01-24T15:19:23;3.60;99.90
13389;DHT22;6764;53.250;10.410;2023-01-24T15:21:50;3.50;99.90
13389;DHT22;6764;53.250;10.410;2023-01-24T15:24:31;3.40;99.90
13389;DHT22;6764;53.250;10.410;2023-01-24T15:26:59;3.30;99.90
13389;DHT22;6764;53.250;10.410;2023-01-24T15:29:38;3.40;99.90
13389;DHT22;6764;53.250;10.410;2023-01-24T15:43:30;3.30;99.90
13389;DHT22;6764;53.250;10.410;2023-01-24T15:46:22;3.20;99.90
13389;DHT22;6764;53.250;10.410;2023-01-24T15:49:28;3.20;99.90
13389;DHT22;6764;53.250;10.410;2023-01-24T15:54:39;3.40;99.90
13389;DHT22;6764;53.250;10.410;2023-01-24T15:57:33;3.30;99.90
13389;DHT22;6764;53.250;10.410;2023-01-24T16:00:22;3.30;99.90
13389;DHT22;6764;53.250;10.410;2023-01-24T16:02:46;3.30;99.90
13389;DHT22;6764;53.250;10.410;2023-01-24T16:05:13;3.20;99.90
13389;DHT22;6764;53.250;10.410;2023-01-24T16:07:39;3.20;99.90
13389;DHT22;6764;53.250;10.410;2023-01-24T16:10:05;3.10;99.90
13389;DHT22;6764;53.250;10.410;2023-01-24T16:12:33;3.10;99.90
13389;DHT22;6764;53.250;10.410;2023-01-24T16:15:00;3.10;99.90
13389;DHT22;6764;53.250;10.410;2023-01-24T16:17:26;3.20;99.90
13389;DHT22;6764;53.250;10.410;2023-01-24T16:19:51;3.30;99.90
13389;DHT22;6764;53.250;10.410;2023-01-24T16:22:17;3.30;99.90
13389;DHT22;6764;53.250;10.410;2023-01-24T16:24:43;3.20;99.90
13389;DHT22;6764;53.250;10.410;2023-01-24T16:27:13;3.10;99.90
13389;DHT22;6764;53.250;10.410;2023-01-24T16:29:39;3.10;99.90
13389;DHT22;6764;53.250;10.410;2023-01-24T16:32:23;3.00;99.90
13389;DHT22;6764;53.250;10.410;2023-01-24T16:34:49;3.00;99.90
13389;DHT22;6764;53.250;10.410;2023-01-24T16:37:15;3.10;99.90
13389;DHT22;6764;53.250;10.410;2023-01-24T16:39:42;3.30;99.90
13389;DHT22;6764;53.250;10.410;2023-01-24T16:42:15;3.20;99.90
13389;DHT22;6764;53.250;10.410;2023-01-24T16:44:41;3.10;99.90
13389;DHT22;6764;53.250;10.410;2023-01-24T16:47:06;3.10;99.90
13389;DHT22;6764;53.250;10.410;2023-01-24T16:49:32;3.00;99.90
13389;DHT22;6764;53.250;10.410;2023-01-24T16:51:58;3.00;99.90
13389;DHT22;6764;53.250;10.410;2023-01-24T16:54:24;3.00;99.90
13389;DHT22;6764;53.250;10.410;2023-01-24T16:56:50;3.00;99.90
13389;DHT22;6764;53.250;10.410;2023-01-24T16:59:15;2.90;99.90
13389;DHT22;6764;53.250;10.410;2023-01-24T17:01:41;2.90;99.90
13389;DHT22;6764;53.250;10.410;2023-01-24T17:04:07;2.90;99.90
13389;DHT22;6764;53.250;10.410;2023-01-24T17:06:33;2.90;99.90
13389;DHT22;6764;53.250;10.410;2023-01-24T17:08:58;3.00;99.90
13389;DHT22;6764;53.250;10.410;2023-01-24T17:11:24;2.90;99.90
13389;DHT22;6764;53.250;10.410;2023-01-24T17:13:50;3.00;99.90
13389;DHT22;6764;53.250;10.410;2023-01-24T17:16:16;3.10;99.90
13389;DHT22;6764;53.250;10.410;2023-01-24T17:18:41;3.10;99.90
13389;DHT22;6764;53.250;10.410;2023-01-24T17:21:09;3.10;99.90
13389;DHT22;6764;53.250;10.410;2023-01-24T17:23:36;3.10;99.90
13389;DHT22;6764;53.250;10.410;2023-01-24T17:26:16;2.90;99.90
13389;DHT22;6764;53.250;10.410;2023-01-24T17:28:43;2.90;99.90
13389;DHT22;6764;53.250;10.410;2023-01-24T17:31:14;2.90;99.90
13389;DHT22;6764;53.250;10.410;2023-01-24T17:33:40;2.90;99.90
13389;DHT22;6764;53.250;10.410;2023-01-24T17:36:06;2.90;99.90
13389;DHT22;6764;53.250;10.410;2023-01-24T17:38:33;2.90;99.90
13389;DHT22;6764;53.250;10.410;2023-01-24T17:40:58;2.90;99.90
13389;DHT22;6764;53.250;10.410;2023-01-24T17:43:24;3.00;99.90
13389;DHT22;6764;53.250;10.410;2023-01-24T17:45:54;3.00;99.90
13389;DHT22;6764;53.250;10.410;2023-01-24T17:48:20;3.00;99.90
13389;DHT22;6764;53.250;10.410;2023-01-24T17:50:46;2.90;99.90
13389;DHT22;6764;53.250;10.410;2023-01-24T17:53:13;3.00;99.90
13389;DHT22;6764;53.250;10.410;2023-01-24T17:55:39;3.00;99.90
13389;DHT22;6764;53.250;10.410;2023-01-24T17:58:05;3.00;99.90
13389;DHT22;6764;53.250;10.410;2023-01-24T18:00:30;3.10;99.90
13389;DHT22;6764;53.250;10.410;2023-01-24T18:02:56;3.00;99.90
13389;DHT22;6764;53.250;10.410;2023-01-24T18:05:21;3.10;99.90
13389;DHT22;6764;53.250;10.410;2023-01-24T18:07:47;3.20;99.90
13389;DHT22;6764;53.250;10.410;2023-01-24T18:10:13;3.20;99.90
13389;DHT22;6764;53.250;10.410;2023-01-24T18:12:40;3.10;99.90
13389;DHT22;6764;53.250;10.410;2023-01-24T18:15:06;3.10;99.90
13389;DHT22;6764;53.250;10.410;2023-01-24T18:17:32;3.10;99.90
13389;DHT22;6764;53.250;10.410;2023-01-24T18:19:57;2.90;99.90